メインページ
METAR-TAF:

METAR-TAF

空港 :

重慶, 中華人民共和国

重慶江北国際空港

緯度: 29-31N, 経度: 106-29E, 海抜: 351m

現時点の気象観測

当レポートは56分前の01:00(UTC)に作成
変向風 2kt
気温 21°C
湿度 88%
気圧 1012 hPa
視程: 2700m
高度700ftの雲はほとんどない
高度1300ftの雲は散在している
高度4300ftの曇り
小雨, 靄

METAR: ZUCK 260100Z VRB01MPS 2700 -RA BR FEW007 SCT013 OVC043 21/19 Q1012 BECMG TL0230 3000

時間: 09:56 (01:56 UTC)


TAF: 見つかりません

4,000以上の空港の気象観測と天気予報(METAR報とTAF報)

利用可能な観測所は地図上に黄色い丸と赤い丸で示す。

丸の上にカーソルを重ねると観測所名を参照できる。

次にクリックすると気象観測と天気予報を参照できる。

マップの切り替え:黒色「×」印の緑ボタンをクリックして拡大、「-」印の緑ボタンをクリックして縮小、緑色の三角印をクリックして隣りの地図に切り替え


METAR-TAF: